Agios Georgios — SV5907 — position and weather

sailwx.info

Track history (hours):
 
Tides and Currents Weather Stations Pressure Air Temp Water Temp Dewpoint Dewpoint Depression Visibility Wind Speed Wind Dir Waves Ship Positions

Agios Georgios

Last reported at 2017-Dec-02 05:52 UTC. Time now 2017-Dec-18 05:26 UTC.
Position N 36°56' E 025°36'.
Warning: this ship's position is 15 days out of date.

Length 16 m; draft 1.8 m.

Type: Fishing. MMSI: 237148900.

Date/timePositionNaut miles runAvg speedWind from/ knotsBaromVisibWave heightAir tempDewpointWater temp
2017-Dec-02 05:52N 36°56' E 025°36'  
2017-Nov-29 13:47N 36°56' E 025°36'0 0.0
2017-Nov-29 13:30N 36°56' E 025°36'2 3.8
2017-Nov-29 13:00N 36°57' E 025°34'1 1.6
2017-Nov-29 12:30N 36°58' E 025°33'0 1.0
2017-Nov-29 12:00N 36°59' E 025°34'2 4.6
2017-Nov-29 11:30N 37°01' E 025°34'0 0.0
2017-Nov-29 11:00N 37°01' E 025°34'0 0.0
2017-Nov-29 10:30N 37°01' E 025°34'0 0.3
2017-Nov-29 10:00N 37°01' E 025°34'1 2.7
2017-Nov-29 09:30N 37°02' E 025°35'2 1.4
2017-Nov-29 07:50N 37°04' E 025°35'0 0.1
2017-Nov-29 07:30N 37°04' E 025°35'  
2017-Nov-26 01:27N 36°56' E 025°36'0 0.0
2017-Nov-25 14:36N 36°56' E 025°36'0 0.7
2017-Nov-25 14:30N 36°56' E 025°36'3 6.1
2017-Nov-25 14:00N 36°58' E 025°34'2 3.1
2017-Nov-25 13:30N 37°00' E 025°34'2 4.5
2017-Nov-25 13:00N 37°02' E 025°35'2 1.3
2017-Nov-25 11:18N 37°04' E 025°36'0 0.2
2017-Nov-25 10:01N 37°05' E 025°35'0 0.5
2017-Nov-25 09:41N 37°05' E 025°36'0 0.3
2017-Nov-25 09:23N 37°05' E 025°36'0 0.3
2017-Nov-25 08:04N 37°04' E 025°36'0 1.7
2017-Nov-25 07:58N 37°04' E 025°35'2 4.9
2017-Nov-25 07:31N 37°02' E 025°35'0 0.5
2017-Nov-25 07:00N 37°02' E 025°35'0 0.0
2017-Nov-25 06:30N 37°02' E 025°35'0 0.2
2017-Nov-25 06:00N 37°02' E 025°35'0 0.2
2017-Nov-25 05:30N 37°02' E 025°35'0 0.0
2017-Nov-25 05:00N 37°02' E 025°35'  
Track history (hours):
 
Tides and Currents Weather Stations Pressure Air Temp Water Temp Dewpoint Dewpoint Depression Visibility Wind Speed Wind Dir Waves Ship Positions

Agios Georgios

Last reported at 2017-Dec-02 05:52 UTC. Time now 2017-Dec-18 05:26 UTC.
Position N 36°56' E 025°36'.
Warning: this ship's position is 15 days out of date.

Length 16 m; draft 1.8 m.

Type: Fishing. MMSI: 237148900.

Date/timePositionNaut miles runAvg speedWind from/ knotsBaromVisibWave heightAir tempDewpointWater temp
2017-Dec-02 05:52N 36°56' E 025°36'  
2017-Nov-29 13:47N 36°56' E 025°36'0 0.0
2017-Nov-29 13:30N 36°56' E 025°36'2 3.8
2017-Nov-29 13:00N 36°57' E 025°34'1 1.6
2017-Nov-29 12:30N 36°58' E 025°33'0 1.0
2017-Nov-29 12:00N 36°59' E 025°34'2 4.6
2017-Nov-29 11:30N 37°01' E 025°34'0 0.0
2017-Nov-29 11:00N 37°01' E 025°34'0 0.0
2017-Nov-29 10:30N 37°01' E 025°34'0 0.3
2017-Nov-29 10:00N 37°01' E 025°34'1 2.7
2017-Nov-29 09:30N 37°02' E 025°35'2 1.4
2017-Nov-29 07:50N 37°04' E 025°35'0 0.1
2017-Nov-29 07:30N 37°04' E 025°35'  
2017-Nov-26 01:27N 36°56' E 025°36'0 0.0
2017-Nov-25 14:36N 36°56' E 025°36'0 0.7
2017-Nov-25 14:30N 36°56' E 025°36'3 6.1
2017-Nov-25 14:00N 36°58' E 025°34'2 3.1
2017-Nov-25 13:30N 37°00' E 025°34'2 4.5
2017-Nov-25 13:00N 37°02' E 025°35'2 1.3
2017-Nov-25 11:18N 37°04' E 025°36'0 0.2
2017-Nov-25 10:01N 37°05' E 025°35'0 0.5
2017-Nov-25 09:41N 37°05' E 025°36'0 0.3
2017-Nov-25 09:23N 37°05' E 025°36'0 0.3
2017-Nov-25 08:04N 37°04' E 025°36'0 1.7
2017-Nov-25 07:58N 37°04' E 025°35'2 4.9
2017-Nov-25 07:31N 37°02' E 025°35'0 0.5
2017-Nov-25 07:00N 37°02' E 025°35'0 0.0
2017-Nov-25 06:30N 37°02' E 025°35'0 0.2
2017-Nov-25 06:00N 37°02' E 025°35'0 0.2
2017-Nov-25 05:30N 37°02' E 025°35'0 0.0
2017-Nov-25 05:00N 37°02' E 025°35'  

Dump ship's entire track history